createdAt,value
2022-11-30T00:01:39.382Z,7.00
2022-11-30T00:04:08.172Z,7.00
2022-11-30T00:06:44.523Z,7.00
2022-11-30T00:09:13.993Z,7.00
2022-11-30T00:11:41.933Z,7.00
2022-11-30T00:14:13.593Z,7.10
2022-11-30T00:16:43.743Z,7.10
2022-11-30T00:19:15.700Z,7.10
2022-11-30T00:21:45.263Z,7.10
2022-11-30T00:24:18.055Z,7.10
2022-11-30T00:26:49.838Z,7.10
2022-11-30T00:29:20.441Z,7.10
2022-11-30T00:31:50.455Z,7.10
2022-11-30T00:34:20.725Z,7.10
2022-11-30T00:36:50.226Z,7.10
2022-11-30T00:39:19.959Z,7.20
2022-11-30T00:41:53.756Z,7.10
2022-11-30T00:44:42.407Z,7.10
2022-11-30T00:47:10.941Z,7.10
2022-11-30T00:49:39.383Z,7.10
2022-11-30T00:52:10.535Z,7.10
2022-11-30T00:54:44.407Z,7.20
2022-11-30T00:57:15.882Z,7.20
2022-11-30T00:59:44.649Z,7.20
2022-11-30T01:02:19.880Z,7.20
2022-11-30T01:04:49.190Z,7.20
2022-11-30T01:07:17.742Z,7.20
2022-11-30T01:09:49.946Z,7.20
2022-11-30T01:12:17.489Z,7.20
2022-11-30T01:14:48.784Z,7.20
2022-11-30T01:17:20.400Z,7.10
2022-11-30T01:19:49.318Z,7.10
2022-11-30T01:22:22.413Z,7.10
2022-11-30T01:24:53.386Z,7.10
2022-11-30T01:27:23.958Z,7.10
2022-11-30T01:29:53.371Z,7.10
2022-11-30T01:32:27.012Z,7.10
2022-11-30T01:34:58.565Z,7.10
2022-11-30T01:37:30.297Z,7.10
2022-11-30T01:39:58.258Z,7.10
2022-11-30T01:42:29.587Z,7.10
2022-11-30T01:44:58.941Z,7.20
2022-11-30T01:47:39.444Z,7.10
2022-11-30T01:50:31.766Z,7.10
2022-11-30T01:53:04.818Z,7.10
2022-11-30T01:55:40.544Z,7.10
2022-11-30T01:58:11.805Z,7.10
2022-11-30T02:00:44.494Z,7.10
2022-11-30T02:03:46.518Z,7.10
2022-11-30T02:06:15.317Z,7.10
2022-11-30T02:08:47.505Z,7.10
2022-11-30T02:11:17.534Z,7.10
2022-11-30T02:14:11.562Z,7.00
2022-11-30T02:16:59.511Z,7.10
2022-11-30T02:19:50.175Z,7.10
2022-11-30T02:22:58.752Z,7.10
2022-11-30T02:26:07.943Z,7.10
2022-11-30T02:29:04.616Z,7.10
2022-11-30T02:32:00.169Z,7.10
2022-11-30T02:34:33.531Z,7.10
2022-11-30T02:37:02.264Z,7.10
2022-11-30T02:39:34.745Z,7.10
2022-11-30T02:42:04.931Z,7.20
2022-11-30T02:44:33.079Z,7.20
2022-11-30T02:47:26.775Z,7.20
2022-11-30T02:50:27.798Z,7.20
2022-11-30T02:52:56.219Z,7.20
2022-11-30T02:55:29.062Z,7.20
2022-11-30T02:57:56.446Z,7.20
2022-11-30T03:00:23.925Z,7.20
2022-11-30T03:02:52.614Z,7.20
2022-11-30T03:05:20.144Z,7.20
2022-11-30T03:07:48.420Z,7.30
2022-11-30T03:10:20.290Z,7.20
2022-11-30T03:12:47.606Z,7.30
2022-11-30T03:15:17.161Z,7.30
2022-11-30T03:17:50.214Z,7.30
2022-11-30T03:20:21.821Z,7.20
2022-11-30T03:22:49.118Z,7.20
2022-11-30T03:25:17.574Z,7.30
2022-11-30T03:27:46.371Z,7.30
2022-11-30T03:30:13.978Z,7.20
2022-11-30T03:32:41.188Z,7.30
2022-11-30T03:35:11.566Z,7.30
2022-11-30T03:37:38.895Z,7.30
2022-11-30T03:40:09.941Z,7.30
2022-11-30T03:42:40.802Z,7.30
2022-11-30T03:45:15.610Z,7.30
2022-11-30T03:47:45.935Z,7.30
2022-11-30T03:50:13.207Z,7.30
2022-11-30T03:52:41.171Z,7.30
2022-11-30T03:55:14.423Z,7.30
2022-11-30T03:57:44.615Z,7.20
2022-11-30T04:00:15.845Z,7.20
2022-11-30T04:02:44.840Z,7.20
2022-11-30T04:05:15.966Z,7.20
2022-11-30T04:07:44.223Z,7.20
2022-11-30T04:10:13.427Z,7.20
2022-11-30T04:12:47.680Z,7.20
2022-11-30T04:15:19.862Z,7.20
2022-11-30T04:17:49.047Z,7.20
2022-11-30T04:20:17.541Z,7.20
2022-11-30T04:22:47.503Z,7.20
2022-11-30T04:25:18.667Z,7.20
2022-11-30T04:27:47.921Z,7.20
2022-11-30T04:30:17.541Z,7.20
2022-11-30T04:32:48.531Z,7.20
2022-11-30T04:35:16.246Z,7.20
2022-11-30T04:37:44.453Z,7.20
2022-11-30T04:40:14.658Z,7.20
2022-11-30T04:42:42.716Z,7.20
2022-11-30T04:45:12.035Z,7.20
2022-11-30T04:47:40.483Z,7.20
2022-11-30T04:50:13.770Z,7.20
2022-11-30T04:52:41.161Z,7.20
2022-11-30T04:55:10.853Z,7.20
2022-11-30T05:00:21.909Z,7.20
2022-11-30T05:02:52.801Z,7.20
2022-11-30T05:05:20.570Z,7.10
2022-11-30T05:08:01.429Z,7.10
2022-11-30T05:10:38.955Z,7.20
2022-11-30T05:13:08.577Z,7.20
2022-11-30T05:15:38.791Z,7.10
2022-11-30T05:18:10.642Z,7.10
2022-11-30T05:20:42.095Z,7.10
2022-11-30T05:23:13.073Z,7.10
2022-11-30T05:25:45.356Z,7.10
2022-11-30T05:28:13.910Z,7.00
2022-11-30T05:30:47.891Z,7.10
2022-11-30T05:33:17.091Z,7.10
2022-11-30T05:35:46.810Z,7.10
2022-11-30T05:38:38.139Z,7.10
2022-11-30T05:41:09.274Z,7.20
2022-11-30T05:43:37.856Z,7.20
2022-11-30T05:46:09.668Z,7.10
2022-11-30T05:48:40.320Z,7.10
2022-11-30T05:51:16.105Z,7.10
2022-11-30T05:53:49.224Z,7.10
2022-11-30T05:56:20.659Z,7.10
2022-11-30T05:58:51.638Z,7.10
2022-11-30T06:01:22.865Z,7.10
2022-11-30T06:03:51.805Z,7.10
2022-11-30T06:06:22.765Z,7.00
2022-11-30T06:08:53.478Z,7.00
2022-11-30T06:11:23.061Z,7.10
2022-11-30T06:13:50.203Z,7.10
2022-11-30T06:16:20.789Z,7.10
2022-11-30T06:18:52.002Z,7.20
2022-11-30T06:21:24.991Z,7.20
2022-11-30T06:23:57.865Z,7.20
2022-11-30T06:26:27.310Z,7.20
2022-11-30T06:29:01.628Z,7.20
2022-11-30T06:31:31.950Z,7.20
2022-11-30T06:34:03.811Z,7.20
2022-11-30T06:36:36.467Z,7.20
2022-11-30T06:39:04.729Z,7.20
2022-11-30T06:41:36.734Z,7.20
2022-11-30T06:44:09.513Z,7.20
2022-11-30T06:46:40.070Z,7.20
2022-11-30T06:49:10.703Z,7.20
2022-11-30T06:51:42.693Z,7.30
2022-11-30T06:54:11.861Z,7.40
2022-11-30T06:56:44.052Z,7.30
2022-11-30T06:59:14.027Z,7.30
2022-11-30T07:01:44.910Z,7.40
2022-11-30T07:04:12.621Z,7.40
2022-11-30T07:06:46.142Z,7.40
2022-11-30T07:09:21.046Z,7.40
2022-11-30T07:11:53.942Z,7.30
2022-11-30T07:14:22.725Z,7.30
2022-11-30T07:16:50.658Z,7.30
2022-11-30T07:19:21.426Z,7.30
2022-11-30T07:21:53.450Z,7.30
2022-11-30T07:24:41.146Z,7.30
2022-11-30T07:27:10.626Z,7.40
2022-11-30T07:29:38.713Z,7.30
2022-11-30T07:32:08.909Z,7.40
2022-11-30T07:34:37.891Z,7.40
2022-11-30T07:37:06.195Z,7.40
2022-11-30T07:39:38.161Z,7.40
2022-11-30T07:42:08.966Z,7.40
2022-11-30T07:44:38.630Z,7.40
2022-11-30T07:47:11.467Z,7.50
2022-11-30T07:49:42.748Z,7.50
2022-11-30T07:52:13.822Z,7.50
2022-11-30T07:54:42.477Z,7.60
2022-11-30T07:57:13.849Z,7.60
2022-11-30T07:59:45.000Z,7.60
2022-11-30T08:02:13.437Z,7.60
2022-11-30T08:04:42.191Z,7.70
2022-11-30T08:07:10.953Z,7.70
2022-11-30T08:09:41.648Z,7.80
2022-11-30T08:12:12.864Z,7.80
2022-11-30T08:15:11.118Z,7.80
2022-11-30T08:17:30.974Z,7.80
2022-11-30T08:20:04.901Z,7.80
2022-11-30T08:22:35.622Z,7.70
2022-11-30T08:25:05.838Z,7.80
2022-11-30T08:27:34.548Z,7.80
2022-11-30T08:30:05.579Z,7.80
2022-11-30T08:32:38.363Z,7.90
2022-11-30T08:35:09.206Z,7.90
2022-11-30T08:37:38.043Z,7.90
2022-11-30T08:40:08.381Z,7.90
2022-11-30T08:42:40.581Z,7.80
2022-11-30T08:45:11.010Z,7.90
2022-11-30T08:47:46.487Z,7.80
2022-11-30T08:50:18.070Z,7.80
2022-11-30T08:52:46.532Z,7.90
2022-11-30T08:55:19.658Z,7.90
2022-11-30T08:57:47.823Z,7.90
2022-11-30T09:00:22.614Z,7.90
2022-11-30T09:02:51.839Z,8.00
2022-11-30T09:05:19.259Z,8.00
2022-11-30T09:07:47.536Z,8.00
2022-11-30T09:10:15.786Z,8.10
2022-11-30T09:12:46.633Z,8.10
2022-11-30T09:15:18.542Z,8.20
2022-11-30T09:17:46.528Z,8.20
2022-11-30T09:20:18.805Z,8.20
2022-11-30T09:22:51.160Z,8.30
2022-11-30T09:25:23.189Z,8.20
2022-11-30T09:27:51.174Z,8.20
2022-11-30T09:30:21.106Z,8.20
2022-11-30T09:32:52.546Z,8.20
2022-11-30T09:35:23.693Z,8.30
2022-11-30T09:37:57.173Z,8.30
2022-11-30T09:40:25.145Z,8.30
2022-11-30T09:43:24.127Z,8.30
2022-11-30T09:46:04.704Z,8.30
2022-11-30T09:48:43.561Z,8.30
2022-11-30T09:51:19.561Z,8.40
2022-11-30T09:53:55.118Z,8.40
2022-11-30T09:56:40.178Z,8.40
2022-11-30T09:59:28.911Z,8.50
2022-11-30T10:02:02.473Z,8.50
2022-11-30T10:04:30.762Z,8.50
2022-11-30T10:07:45.292Z,8.50
2022-11-30T10:11:11.669Z,8.40
2022-11-30T10:14:25.865Z,8.30
2022-11-30T10:17:05.726Z,8.30
2022-11-30T10:20:02.576Z,8.40
2022-11-30T10:23:06.456Z,8.50
2022-11-30T10:26:01.784Z,8.50
2022-11-30T10:28:47.519Z,8.60
2022-11-30T10:31:19.197Z,8.70
2022-11-30T10:33:52.776Z,8.80
2022-11-30T10:36:45.731Z,8.80
2022-11-30T10:39:43.057Z,8.80
2022-11-30T10:42:20.711Z,8.90
2022-11-30T10:45:17.675Z,8.90
2022-11-30T10:48:07.735Z,9.00
2022-11-30T10:50:39.046Z,9.10
2022-11-30T10:53:13.042Z,9.10
2022-11-30T10:55:50.414Z,9.10
2022-11-30T10:58:50.366Z,9.10
2022-11-30T11:01:48.533Z,9.10
2022-11-30T11:04:20.787Z,9.00
2022-11-30T11:07:16.396Z,8.90
2022-11-30T11:09:52.449Z,8.90
2022-11-30T11:12:22.734Z,8.90
2022-11-30T11:15:12.293Z,8.90
2022-11-30T11:17:39.616Z,9.00
2022-11-30T11:20:34.742Z,9.00
2022-11-30T11:23:06.004Z,9.00
2022-11-30T11:25:43.632Z,9.00
2022-11-30T11:28:39.344Z,9.00
2022-11-30T11:31:21.805Z,9.00
2022-11-30T11:33:58.918Z,9.00
2022-11-30T11:36:35.297Z,9.00
2022-11-30T11:39:27.059Z,9.00
2022-11-30T11:41:57.688Z,9.00
2022-11-30T11:44:30.600Z,9.00
2022-11-30T11:47:25.387Z,9.00
2022-11-30T11:50:07.156Z,9.10
2022-11-30T11:52:36.168Z,9.10
2022-11-30T11:55:06.450Z,9.10
2022-11-30T11:58:00.304Z,9.00
2022-11-30T12:00:29.588Z,9.00
2022-11-30T12:03:47.968Z,9.00
2022-11-30T12:06:31.286Z,8.90
2022-11-30T12:09:20.443Z,8.80
2022-11-30T12:11:49.534Z,8.70
2022-11-30T12:14:22.325Z,8.70
2022-11-30T12:17:19.123Z,8.70
2022-11-30T12:20:09.409Z,8.70
2022-11-30T12:23:13.794Z,8.70
2022-11-30T12:26:35.554Z,8.70
2022-11-30T12:29:36.633Z,8.60
2022-11-30T12:32:27.619Z,8.60
2022-11-30T12:35:14.919Z,8.70
2022-11-30T12:38:02.801Z,8.70
2022-11-30T12:41:01.278Z,8.60
2022-11-30T12:43:34.389Z,8.60
2022-11-30T12:46:35.475Z,8.60
2022-11-30T12:49:24.584Z,8.60
2022-11-30T12:52:31.385Z,8.60
2022-11-30T12:55:43.633Z,8.50
2022-11-30T12:58:43.117Z,8.40
2022-11-30T13:01:47.603Z,8.30
2022-11-30T13:04:21.982Z,8.30
2022-11-30T13:07:18.578Z,8.30
2022-11-30T13:10:07.272Z,8.50
2022-11-30T13:12:43.509Z,8.60
2022-11-30T13:15:23.763Z,8.80
2022-11-30T13:17:52.850Z,9.00
2022-11-30T13:20:33.753Z,9.30
2022-11-30T13:23:36.999Z,9.50
2022-11-30T13:26:36.213Z,9.70
2022-11-30T13:29:20.289Z,9.80
2022-11-30T13:32:05.689Z,10.00
2022-11-30T13:34:41.338Z,9.80
2022-11-30T13:37:16.263Z,9.90
2022-11-30T13:39:58.039Z,9.90
2022-11-30T13:42:28.254Z,10.00
2022-11-30T13:44:58.361Z,9.90
2022-11-30T13:47:44.519Z,9.80
2022-11-30T13:50:29.105Z,9.70
2022-11-30T13:53:00.625Z,9.80
2022-11-30T13:55:44.708Z,9.80
2022-11-30T13:58:17.208Z,9.80
2022-11-30T14:01:22.220Z,9.90
2022-11-30T14:04:20.449Z,9.80
2022-11-30T14:06:55.859Z,9.70
2022-11-30T14:10:00.220Z,9.50
2022-11-30T14:12:47.008Z,9.50
2022-11-30T14:15:41.198Z,9.40
2022-11-30T14:18:15.368Z,9.40
2022-11-30T14:21:03.998Z,9.30
2022-11-30T14:24:01.006Z,9.20
2022-11-30T14:26:40.582Z,9.00
2022-11-30T14:29:07.723Z,8.80
2022-11-30T14:31:58.595Z,8.70
2022-11-30T14:34:46.658Z,8.60
2022-11-30T14:37:41.396Z,8.50
2022-11-30T14:40:24.241Z,8.30
2022-11-30T14:43:00.571Z,8.20
2022-11-30T14:45:33.376Z,8.10
2022-11-30T14:48:20.125Z,8.00
2022-11-30T14:50:53.635Z,8.00
2022-11-30T14:53:29.257Z,8.00
2022-11-30T14:56:42.350Z,8.00
2022-11-30T14:59:26.807Z,8.00
2022-11-30T15:02:03.885Z,7.90
2022-11-30T15:04:32.207Z,7.90
2022-11-30T15:07:01.032Z,7.80
2022-11-30T15:09:33.466Z,7.80
2022-11-30T15:12:01.316Z,7.70
2022-11-30T15:14:28.798Z,7.70
2022-11-30T15:16:58.159Z,7.70
2022-11-30T15:19:39.752Z,7.70
2022-11-30T15:22:23.300Z,7.60
2022-11-30T15:24:52.898Z,7.60
2022-11-30T15:27:25.834Z,7.60
2022-11-30T15:30:03.088Z,7.70
2022-11-30T15:32:34.606Z,7.70
2022-11-30T15:35:05.598Z,7.70
2022-11-30T15:37:47.536Z,7.60
2022-11-30T15:40:26.272Z,7.60
2022-11-30T15:42:56.745Z,7.70
2022-11-30T15:45:28.059Z,7.70
2022-11-30T15:48:03.432Z,7.70
2022-11-30T15:50:42.732Z,7.60
2022-11-30T15:53:57.490Z,7.60
2022-11-30T15:56:28.440Z,7.50
2022-11-30T15:59:08.320Z,7.50
2022-11-30T16:02:15.267Z,7.50
2022-11-30T16:05:17.194Z,7.50
2022-11-30T16:08:19.648Z,7.40
2022-11-30T16:10:49.644Z,7.50
2022-11-30T16:13:21.996Z,7.50
2022-11-30T16:15:53.317Z,7.50
2022-11-30T16:18:26.631Z,7.50
2022-11-30T16:21:02.589Z,7.50
2022-11-30T16:23:38.840Z,7.40
2022-11-30T16:26:43.677Z,7.40
2022-11-30T16:29:11.951Z,7.40
2022-11-30T16:31:44.087Z,7.30
2022-11-30T16:34:18.415Z,7.40
2022-11-30T16:36:51.358Z,7.40
2022-11-30T16:39:25.591Z,7.40
2022-11-30T16:41:57.865Z,7.40
2022-11-30T16:44:29.379Z,7.40
2022-11-30T16:49:39.155Z,7.40
2022-11-30T16:52:19.260Z,7.40
2022-11-30T16:54:50.114Z,7.40
2022-11-30T16:57:24.122Z,7.40
2022-11-30T16:59:54.659Z,7.30
2022-11-30T17:02:25.003Z,7.30
2022-11-30T17:04:59.379Z,7.20
2022-11-30T17:07:27.256Z,7.10
2022-11-30T17:09:57.062Z,7.10
2022-11-30T17:12:27.344Z,7.10
2022-11-30T17:14:57.476Z,7.20
2022-11-30T17:17:31.241Z,7.10
2022-11-30T17:20:02.342Z,7.10
2022-11-30T17:22:36.403Z,7.20
2022-11-30T17:25:09.917Z,7.20
2022-11-30T17:27:42.914Z,7.30
2022-11-30T17:30:24.674Z,7.30
2022-11-30T17:32:55.498Z,7.30
2022-11-30T17:35:31.729Z,7.30
2022-11-30T17:38:01.514Z,7.30
2022-11-30T17:40:33.313Z,7.30
2022-11-30T17:43:06.738Z,7.30
2022-11-30T17:45:43.380Z,7.30
2022-11-30T17:48:20.041Z,7.20
2022-11-30T17:50:54.987Z,7.20
2022-11-30T17:53:26.618Z,7.20
2022-11-30T17:56:15.120Z,7.20
2022-11-30T17:58:49.235Z,7.20
2022-11-30T18:01:42.298Z,7.20
2022-11-30T18:04:11.381Z,7.20
2022-11-30T18:06:43.228Z,7.20
2022-11-30T18:09:14.648Z,7.20
2022-11-30T18:11:43.193Z,7.20
2022-11-30T18:14:14.337Z,7.10
2022-11-30T18:16:45.666Z,7.10
2022-11-30T18:19:18.414Z,7.10
2022-11-30T18:21:50.627Z,7.10
2022-11-30T18:24:25.518Z,7.10
2022-11-30T18:26:58.397Z,7.10
2022-11-30T18:29:32.707Z,7.20
2022-11-30T18:32:01.284Z,7.20
2022-11-30T18:34:31.663Z,7.20
2022-11-30T18:37:01.664Z,7.20
2022-11-30T18:39:33.204Z,7.20
2022-11-30T18:42:01.958Z,7.20
2022-11-30T18:44:36.585Z,7.20
2022-11-30T18:47:22.586Z,7.20
2022-11-30T18:49:51.686Z,7.10
2022-11-30T18:52:21.313Z,7.10
2022-11-30T18:54:54.635Z,6.90
2022-11-30T18:57:21.984Z,6.90
2022-11-30T18:59:58.437Z,6.90
2022-11-30T19:02:27.756Z,6.90
2022-11-30T19:05:01.829Z,6.90
2022-11-30T19:07:32.258Z,7.00
2022-11-30T19:10:04.609Z,7.00
2022-11-30T19:12:38.763Z,7.00
2022-11-30T19:15:11.699Z,7.00
2022-11-30T19:17:45.992Z,6.90
2022-11-30T19:20:18.216Z,6.90
2022-11-30T19:22:56.013Z,7.00
2022-11-30T19:25:27.204Z,6.90
2022-11-30T19:27:58.866Z,6.90
2022-11-30T19:30:26.486Z,6.90
2022-11-30T19:32:59.398Z,6.90
2022-11-30T19:35:31.651Z,6.90
2022-11-30T19:38:03.489Z,6.90
2022-11-30T19:40:37.646Z,6.80
2022-11-30T19:43:10.479Z,6.80
2022-11-30T19:45:42.463Z,6.80
2022-11-30T19:48:14.580Z,6.90
2022-11-30T19:50:50.823Z,6.90
2022-11-30T19:53:21.682Z,6.90
2022-11-30T19:55:56.365Z,6.90
2022-11-30T19:58:33.568Z,6.90
2022-11-30T20:01:08.230Z,6.90
2022-11-30T20:03:43.947Z,6.90
2022-11-30T20:06:18.246Z,6.90
2022-11-30T20:08:53.098Z,6.90
2022-11-30T20:11:26.395Z,6.90
2022-11-30T20:14:02.974Z,6.80
2022-11-30T20:16:37.616Z,6.80
2022-11-30T20:19:06.207Z,6.80
2022-11-30T20:21:38.942Z,6.80
2022-11-30T20:24:12.524Z,6.80
2022-11-30T20:26:44.506Z,6.80
2022-11-30T20:29:20.640Z,6.70
2022-11-30T20:31:49.762Z,6.80
2022-11-30T20:34:21.573Z,6.70
2022-11-30T20:36:50.638Z,6.70
2022-11-30T20:39:21.292Z,6.60
2022-11-30T20:41:53.921Z,6.60
2022-11-30T20:44:28.991Z,6.60
2022-11-30T20:46:58.758Z,6.70
2022-11-30T20:49:30.693Z,6.70
2022-11-30T20:51:59.663Z,6.80
2022-11-30T20:54:36.896Z,6.80
2022-11-30T20:57:07.779Z,6.70
2022-11-30T20:59:39.772Z,6.80
2022-11-30T21:02:12.222Z,6.80
2022-11-30T21:04:46.354Z,6.80
2022-11-30T21:10:01.463Z,6.80
2022-11-30T21:12:30.219Z,6.80
2022-11-30T21:15:01.341Z,6.80
2022-11-30T21:17:31.998Z,6.80
2022-11-30T21:20:21.712Z,6.70
2022-11-30T21:22:50.843Z,6.70
2022-11-30T21:25:18.870Z,6.70
2022-11-30T21:27:52.830Z,6.70
2022-11-30T21:30:20.689Z,6.70
2022-11-30T21:32:53.445Z,6.60
2022-11-30T21:35:25.581Z,6.60
2022-11-30T21:37:53.662Z,6.60
2022-11-30T21:40:23.743Z,6.60
2022-11-30T21:42:53.690Z,6.60
2022-11-30T21:45:25.830Z,6.60
2022-11-30T21:47:54.471Z,6.60
2022-11-30T21:50:27.360Z,6.60
2022-11-30T21:53:00.273Z,6.60
2022-11-30T21:55:32.904Z,6.60
2022-11-30T21:58:07.681Z,6.60
2022-11-30T22:00:42.970Z,6.60
2022-11-30T22:03:19.195Z,6.70
2022-11-30T22:06:17.406Z,6.60
2022-11-30T22:08:47.279Z,6.60
2022-11-30T22:11:20.835Z,6.60
2022-11-30T22:13:57.332Z,6.50
2022-11-30T22:16:32.419Z,6.50
2022-11-30T22:19:07.244Z,6.50
2022-11-30T22:21:35.954Z,6.50
2022-11-30T22:24:12.217Z,6.50
2022-11-30T22:26:47.925Z,6.40
2022-11-30T22:29:17.281Z,6.50
2022-11-30T22:31:54.046Z,6.50
2022-11-30T22:34:23.399Z,6.40
2022-11-30T22:36:50.620Z,6.50
2022-11-30T22:39:24.729Z,6.50
2022-11-30T22:41:56.035Z,6.50
2022-11-30T22:47:08.339Z,6.50
2022-11-30T22:49:39.771Z,6.50
2022-11-30T22:52:07.905Z,6.50
2022-11-30T22:54:36.982Z,6.40
2022-11-30T22:57:05.024Z,6.40
2022-11-30T22:59:39.074Z,6.40
2022-11-30T23:02:11.706Z,6.50
2022-11-30T23:04:40.881Z,6.50
2022-11-30T23:07:11.865Z,6.50
2022-11-30T23:09:44.790Z,6.40
2022-11-30T23:12:35.867Z,6.50
2022-11-30T23:15:03.549Z,6.50
2022-11-30T23:17:34.937Z,6.50
2022-11-30T23:20:06.383Z,6.50
2022-11-30T23:22:37.027Z,6.50
2022-11-30T23:25:06.049Z,6.50
2022-11-30T23:27:35.947Z,6.40
2022-11-30T23:30:05.933Z,6.40
2022-11-30T23:32:34.787Z,6.40
2022-11-30T23:35:02.192Z,6.30
2022-11-30T23:37:34.756Z,6.30
2022-11-30T23:40:03.446Z,6.30
2022-11-30T23:42:35.588Z,6.30
2022-11-30T23:45:07.618Z,6.30
2022-11-30T23:47:36.494Z,6.30
2022-11-30T23:50:05.706Z,6.30
2022-11-30T23:52:35.821Z,6.30
2022-11-30T23:55:07.799Z,6.30
2022-11-30T23:57:36.599Z,6.30
